sensor_id;sensor_type;location;lat;lon;timestamp;temperature;humidity
60909;DHT22;46780;48.128;-1.704;2022-09-09T00:00:47;17.10;93.20
60909;DHT22;46780;48.128;-1.704;2022-09-09T00:03:17;17.00;93.20
60909;DHT22;46780;48.128;-1.704;2022-09-09T00:05:51;17.10;93.20
60909;DHT22;46780;48.128;-1.704;2022-09-09T00:08:20;17.10;93.20
60909;DHT22;46780;48.128;-1.704;2022-09-09T00:10:54;17.00;93.20
60909;DHT22;46780;48.128;-1.704;2022-09-09T00:13:27;17.00;93.30
60909;DHT22;46780;48.128;-1.704;2022-09-09T00:16:00;17.00;93.40
60909;DHT22;46780;48.128;-1.704;2022-09-09T00:18:35;16.90;93.50
60909;DHT22;46780;48.128;-1.704;2022-09-09T00:21:06;16.90;93.60
60909;DHT22;46780;48.128;-1.704;2022-09-09T00:23:35;16.90;93.70
60909;DHT22;46780;48.128;-1.704;2022-09-09T00:26:18;16.90;93.80
60909;DHT22;46780;48.128;-1.704;2022-09-09T00:28:50;16.90;93.70
60909;DHT22;46780;48.128;-1.704;2022-09-09T00:31:23;16.90;93.70
60909;DHT22;46780;48.128;-1.704;2022-09-09T00:33:52;16.90;93.80
60909;DHT22;46780;48.128;-1.704;2022-09-09T00:36:22;16.90;93.80
60909;DHT22;46780;48.128;-1.704;2022-09-09T00:38:52;16.90;93.90
60909;DHT22;46780;48.128;-1.704;2022-09-09T00:41:29;16.90;93.80
60909;DHT22;46780;48.128;-1.704;2022-09-09T00:44:00;16.90;93.80
60909;DHT22;46780;48.128;-1.704;2022-09-09T00:46:54;16.90;93.80
60909;DHT22;46780;48.128;-1.704;2022-09-09T00:49:32;16.90;93.70
60909;DHT22;46780;48.128;-1.704;2022-09-09T00:52:12;16.80;93.80
60909;DHT22;46780;48.128;-1.704;2022-09-09T00:54:48;16.80;93.80
60909;DHT22;46780;48.128;-1.704;2022-09-09T00:57:25;16.80;93.80
60909;DHT22;46780;48.128;-1.704;2022-09-09T00:59:53;16.80;93.80
60909;DHT22;46780;48.128;-1.704;2022-09-09T01:02:27;16.80;93.70
60909;DHT22;46780;48.128;-1.704;2022-09-09T01:04:53;16.80;93.70
60909;DHT22;46780;48.128;-1.704;2022-09-09T01:07:21;16.80;93.80
60909;DHT22;46780;48.128;-1.704;2022-09-09T01:09:56;16.70;93.80
60909;DHT22;46780;48.128;-1.704;2022-09-09T01:12:29;16.70;93.80
60909;DHT22;46780;48.128;-1.704;2022-09-09T01:15:07;16.70;93.90
60909;DHT22;46780;48.128;-1.704;2022-09-09T01:17:39;16.70;93.90
60909;DHT22;46780;48.128;-1.704;2022-09-09T01:20:12;16.70;93.90
60909;DHT22;46780;48.128;-1.704;2022-09-09T01:22:47;16.70;93.80
60909;DHT22;46780;48.128;-1.704;2022-09-09T01:25:22;16.70;93.80
60909;DHT22;46780;48.128;-1.704;2022-09-09T01:28:00;16.70;93.80
60909;DHT22;46780;48.128;-1.704;2022-09-09T01:30:28;16.60;93.80
60909;DHT22;46780;48.128;-1.704;2022-09-09T01:32:56;16.60;93.90
60909;DHT22;46780;48.128;-1.704;2022-09-09T01:35:31;16.60;93.80
60909;DHT22;46780;48.128;-1.704;2022-09-09T01:37:59;16.60;93.90
60909;DHT22;46780;48.128;-1.704;2022-09-09T01:40:25;16.60;93.90
60909;DHT22;46780;48.128;-1.704;2022-09-09T01:42:52;16.60;93.90
60909;DHT22;46780;48.128;-1.704;2022-09-09T01:45:21;16.60;93.90
60909;DHT22;46780;48.128;-1.704;2022-09-09T01:47:48;16.60;94.00
60909;DHT22;46780;48.128;-1.704;2022-09-09T01:56:32;16.60;94.10
60909;DHT22;46780;48.128;-1.704;2022-09-09T01:59:17;16.60;94.30
60909;DHT22;46780;48.128;-1.704;2022-09-09T02:01:57;16.50;94.40
60909;DHT22;46780;48.128;-1.704;2022-09-09T02:04:36;16.50;94.50
60909;DHT22;46780;48.128;-1.704;2022-09-09T02:07:06;16.50;94.50
60909;DHT22;46780;48.128;-1.704;2022-09-09T02:09:38;16.50;94.50
60909;DHT22;46780;48.128;-1.704;2022-09-09T02:12:10;16.50;94.50
60909;DHT22;46780;48.128;-1.704;2022-09-09T02:14:40;16.50;94.60
60909;DHT22;46780;48.128;-1.704;2022-09-09T02:17:09;16.50;94.50
60909;DHT22;46780;48.128;-1.704;2022-09-09T02:19:39;16.50;94.40
60909;DHT22;46780;48.128;-1.704;2022-09-09T02:22:09;16.50;94.60
60909;DHT22;46780;48.128;-1.704;2022-09-09T02:24:39;16.40;94.60
60909;DHT22;46780;48.128;-1.704;2022-09-09T02:27:08;16.50;94.60
60909;DHT22;46780;48.128;-1.704;2022-09-09T02:29:37;16.50;94.50
60909;DHT22;46780;48.128;-1.704;2022-09-09T02:32:08;16.50;94.50
60909;DHT22;46780;48.128;-1.704;2022-09-09T02:34:39;16.60;94.50
60909;DHT22;46780;48.128;-1.704;2022-09-09T02:37:08;16.60;94.40
60909;DHT22;46780;48.128;-1.704;2022-09-09T02:39:35;16.60;94.30
60909;DHT22;46780;48.128;-1.704;2022-09-09T02:42:04;16.60;94.20
60909;DHT22;46780;48.128;-1.704;2022-09-09T02:44:31;16.60;94.10
60909;DHT22;46780;48.128;-1.704;2022-09-09T02:47:18;16.60;94.10
60909;DHT22;46780;48.128;-1.704;2022-09-09T02:49:55;16.70;93.90
60909;DHT22;46780;48.128;-1.704;2022-09-09T02:52:28;16.70;93.80
60909;DHT22;46780;48.128;-1.704;2022-09-09T02:55:05;16.70;93.70
60909;DHT22;46780;48.128;-1.704;2022-09-09T02:57:34;16.70;93.60
60909;DHT22;46780;48.128;-1.704;2022-09-09T03:00:01;16.70;93.60
60909;DHT22;46780;48.128;-1.704;2022-09-09T03:02:28;16.70;93.50
60909;DHT22;46780;48.128;-1.704;2022-09-09T03:04:56;16.70;93.50
60909;DHT22;46780;48.128;-1.704;2022-09-09T03:07:22;16.70;93.50
60909;DHT22;46780;48.128;-1.704;2022-09-09T03:09:49;16.70;93.50
60909;DHT22;46780;48.128;-1.704;2022-09-09T03:12:15;16.70;93.40
60909;DHT22;46780;48.128;-1.704;2022-09-09T03:14:42;16.70;93.40
60909;DHT22;46780;48.128;-1.704;2022-09-09T03:17:08;16.80;93.40
60909;DHT22;46780;48.128;-1.704;2022-09-09T03:19:35;16.80;93.30
60909;DHT22;46780;48.128;-1.704;2022-09-09T03:22:03;16.80;93.30
60909;DHT22;46780;48.128;-1.704;2022-09-09T03:24:29;16.80;93.20
60909;DHT22;46780;48.128;-1.704;2022-09-09T03:26:56;16.80;93.60
60909;DHT22;46780;48.128;-1.704;2022-09-09T03:29:22;16.80;93.10
60909;DHT22;46780;48.128;-1.704;2022-09-09T03:31:49;16.80;93.10
60909;DHT22;46780;48.128;-1.704;2022-09-09T03:34:15;16.80;93.10
60909;DHT22;46780;48.128;-1.704;2022-09-09T03:36:42;16.80;93.10
60909;DHT22;46780;48.128;-1.704;2022-09-09T03:39:10;16.80;93.10
60909;DHT22;46780;48.128;-1.704;2022-09-09T03:41:36;16.80;93.10
60909;DHT22;46780;48.128;-1.704;2022-09-09T03:44:03;16.80;93.10
60909;DHT22;46780;48.128;-1.704;2022-09-09T03:46:29;16.80;93.10
60909;DHT22;46780;48.128;-1.704;2022-09-09T03:48:56;16.80;93.10
60909;DHT22;46780;48.128;-1.704;2022-09-09T03:51:22;16.80;93.10
60909;DHT22;46780;48.128;-1.704;2022-09-09T03:53:49;16.80;93.10
60909;DHT22;46780;48.128;-1.704;2022-09-09T03:56:16;16.80;93.10
60909;DHT22;46780;48.128;-1.704;2022-09-09T03:58:43;16.70;93.10
60909;DHT22;46780;48.128;-1.704;2022-09-09T04:01:11;16.70;93.20
60909;DHT22;46780;48.128;-1.704;2022-09-09T04:03:37;16.80;93.20
60909;DHT22;46780;48.128;-1.704;2022-09-09T04:06:05;16.70;93.20
60909;DHT22;46780;48.128;-1.704;2022-09-09T04:08:32;16.70;93.30
60909;DHT22;46780;48.128;-1.704;2022-09-09T04:10:58;16.70;93.30
60909;DHT22;46780;48.128;-1.704;2022-09-09T04:13:26;16.70;93.40
60909;DHT22;46780;48.128;-1.704;2022-09-09T04:15:54;16.70;93.40
60909;DHT22;46780;48.128;-1.704;2022-09-09T04:18:21;16.70;93.50
60909;DHT22;46780;48.128;-1.704;2022-09-09T04:20:49;16.60;93.60
60909;DHT22;46780;48.128;-1.704;2022-09-09T04:23:15;16.60;93.70
60909;DHT22;46780;48.128;-1.704;2022-09-09T04:25:45;16.50;93.80
60909;DHT22;46780;48.128;-1.704;2022-09-09T04:28:12;16.50;93.90
60909;DHT22;46780;48.128;-1.704;2022-09-09T04:30:40;16.50;94.00
60909;DHT22;46780;48.128;-1.704;2022-09-09T04:33:06;16.50;94.10
60909;DHT22;46780;48.128;-1.704;2022-09-09T04:35:33;16.50;94.10
60909;DHT22;46780;48.128;-1.704;2022-09-09T04:38:00;16.50;94.20
60909;DHT22;46780;48.128;-1.704;2022-09-09T04:40:26;16.50;94.20
60909;DHT22;46780;48.128;-1.704;2022-09-09T04:42:52;16.50;94.20
60909;DHT22;46780;48.128;-1.704;2022-09-09T04:45:19;16.50;94.20
60909;DHT22;46780;48.128;-1.704;2022-09-09T04:47:47;16.50;94.30
60909;DHT22;46780;48.128;-1.704;2022-09-09T04:50:13;16.50;94.30
60909;DHT22;46780;48.128;-1.704;2022-09-09T04:52:40;16.40;94.30
60909;DHT22;46780;48.128;-1.704;2022-09-09T04:55:07;16.40;94.40
60909;DHT22;46780;48.128;-1.704;2022-09-09T04:57:34;16.50;94.50
60909;DHT22;46780;48.128;-1.704;2022-09-09T05:00:02;16.50;94.50
60909;DHT22;46780;48.128;-1.704;2022-09-09T05:02:28;16.50;94.40
60909;DHT22;46780;48.128;-1.704;2022-09-09T05:04:56;16.50;94.40
60909;DHT22;46780;48.128;-1.704;2022-09-09T05:07:23;16.50;94.40
60909;DHT22;46780;48.128;-1.704;2022-09-09T05:09:49;16.50;94.40
60909;DHT22;46780;48.128;-1.704;2022-09-09T05:12:16;16.50;94.50
60909;DHT22;46780;48.128;-1.704;2022-09-09T05:14:42;16.50;94.50
60909;DHT22;46780;48.128;-1.704;2022-09-09T05:17:09;16.50;94.50
60909;DHT22;46780;48.128;-1.704;2022-09-09T05:19:36;16.40;94.50
60909;DHT22;46780;48.128;-1.704;2022-09-09T05:22:04;16.40;94.50
60909;DHT22;46780;48.128;-1.704;2022-09-09T05:24:30;16.40;94.50
60909;DHT22;46780;48.128;-1.704;2022-09-09T05:26:56;16.50;94.50
60909;DHT22;46780;48.128;-1.704;2022-09-09T05:29:23;16.40;94.50
60909;DHT22;46780;48.128;-1.704;2022-09-09T05:31:49;16.40;94.60
60909;DHT22;46780;48.128;-1.704;2022-09-09T05:34:16;16.40;94.50
60909;DHT22;46780;48.128;-1.704;2022-09-09T05:36:42;16.40;94.60
60909;DHT22;46780;48.128;-1.704;2022-09-09T05:39:10;16.40;94.60
60909;DHT22;46780;48.128;-1.704;2022-09-09T05:41:36;16.40;94.60
60909;DHT22;46780;48.128;-1.704;2022-09-09T05:44:03;16.40;94.60
60909;DHT22;46780;48.128;-1.704;2022-09-09T05:46:29;16.40;94.50
60909;DHT22;46780;48.128;-1.704;2022-09-09T05:48:56;16.40;94.60
60909;DHT22;46780;48.128;-1.704;2022-09-09T05:51:24;16.40;94.60
60909;DHT22;46780;48.128;-1.704;2022-09-09T05:53:51;16.40;94.50
60909;DHT22;46780;48.128;-1.704;2022-09-09T05:56:20;16.40;94.50
60909;DHT22;46780;48.128;-1.704;2022-09-09T05:58:47;16.40;94.50
60909;DHT22;46780;48.128;-1.704;2022-09-09T06:01:16;16.40;94.50
60909;DHT22;46780;48.128;-1.704;2022-09-09T06:03:44;16.30;94.50
60909;DHT22;46780;48.128;-1.704;2022-09-09T06:06:12;16.30;94.60
60909;DHT22;46780;48.128;-1.704;2022-09-09T06:08:41;16.40;94.60
60909;DHT22;46780;48.128;-1.704;2022-09-09T06:11:09;16.40;94.50
60909;DHT22;46780;48.128;-1.704;2022-09-09T06:13:38;16.40;94.50
60909;DHT22;46780;48.128;-1.704;2022-09-09T06:16:05;16.40;94.50
60909;DHT22;46780;48.128;-1.704;2022-09-09T06:18:32;16.40;94.50
60909;DHT22;46780;48.128;-1.704;2022-09-09T06:21:00;16.40;94.40
60909;DHT22;46780;48.128;-1.704;2022-09-09T06:23:27;16.40;94.40
60909;DHT22;46780;48.128;-1.704;2022-09-09T06:26:02;16.40;94.40
60909;DHT22;46780;48.128;-1.704;2022-09-09T06:28:28;16.40;94.40
60909;DHT22;46780;48.128;-1.704;2022-09-09T06:30:58;16.40;94.30
60909;DHT22;46780;48.128;-1.704;2022-09-09T06:33:25;16.40;94.30
60909;DHT22;46780;48.128;-1.704;2022-09-09T06:35:52;16.40;94.30
60909;DHT22;46780;48.128;-1.704;2022-09-09T06:38:19;16.50;94.30
60909;DHT22;46780;48.128;-1.704;2022-09-09T06:40:51;16.50;94.30
60909;DHT22;46780;48.128;-1.704;2022-09-09T06:43:17;16.60;94.30
60909;DHT22;46780;48.128;-1.704;2022-09-09T06:45:53;16.60;94.10
60909;DHT22;46780;48.128;-1.704;2022-09-09T06:48:21;16.60;94.00
60909;DHT22;46780;48.128;-1.704;2022-09-09T06:50:47;16.70;93.90
60909;DHT22;46780;48.128;-1.704;2022-09-09T06:53:17;16.70;93.90
60909;DHT22;46780;48.128;-1.704;2022-09-09T06:55:43;16.70;93.90
60909;DHT22;46780;48.128;-1.704;2022-09-09T06:58:10;16.80;93.90
60909;DHT22;46780;48.128;-1.704;2022-09-09T07:00:36;16.80;93.70
60909;DHT22;46780;48.128;-1.704;2022-09-09T07:03:03;16.80;93.60
60909;DHT22;46780;48.128;-1.704;2022-09-09T07:05:31;16.90;93.50
60909;DHT22;46780;48.128;-1.704;2022-09-09T07:07:57;16.90;93.30
60909;DHT22;46780;48.128;-1.704;2022-09-09T07:10:24;17.00;93.30
60909;DHT22;46780;48.128;-1.704;2022-09-09T07:12:51;17.00;93.30
60909;DHT22;46780;48.128;-1.704;2022-09-09T07:15:17;17.00;93.20
60909;DHT22;46780;48.128;-1.704;2022-09-09T07:17:44;17.10;93.00
60909;DHT22;46780;48.128;-1.704;2022-09-09T07:20:11;17.20;92.80
60909;DHT22;46780;48.128;-1.704;2022-09-09T07:22:39;17.20;92.60
60909;DHT22;46780;48.128;-1.704;2022-09-09T07:25:06;17.30;92.50
60909;DHT22;46780;48.128;-1.704;2022-09-09T07:27:34;17.40;92.30
60909;DHT22;46780;48.128;-1.704;2022-09-09T07:30:00;17.40;92.10
60909;DHT22;46780;48.128;-1.704;2022-09-09T07:32:26;17.50;92.10
60909;DHT22;46780;48.128;-1.704;2022-09-09T07:34:53;17.50;91.80
60909;DHT22;46780;48.128;-1.704;2022-09-09T07:37:19;17.60;91.70
60909;DHT22;46780;48.128;-1.704;2022-09-09T07:39:47;17.50;91.40
60909;DHT22;46780;48.128;-1.704;2022-09-09T07:42:14;17.60;91.40
60909;DHT22;46780;48.128;-1.704;2022-09-09T07:44:40;17.60;91.30
60909;DHT22;46780;48.128;-1.704;2022-09-09T07:47:07;17.60;91.20
60909;DHT22;46780;48.128;-1.704;2022-09-09T07:49:34;17.60;91.00
60909;DHT22;46780;48.128;-1.704;2022-09-09T07:52:01;17.50;90.90
60909;DHT22;46780;48.128;-1.704;2022-09-09T07:54:27;17.50;90.90
60909;DHT22;46780;48.128;-1.704;2022-09-09T07:56:55;17.50;91.00
60909;DHT22;46780;48.128;-1.704;2022-09-09T07:59:22;17.50;91.00
60909;DHT22;46780;48.128;-1.704;2022-09-09T08:01:50;17.60;90.70
60909;DHT22;46780;48.128;-1.704;2022-09-09T08:04:18;17.70;90.40
60909;DHT22;46780;48.128;-1.704;2022-09-09T08:06:46;17.80;90.50
60909;DHT22;46780;48.128;-1.704;2022-09-09T08:09:14;17.90;90.60
60909;DHT22;46780;48.128;-1.704;2022-09-09T08:11:42;18.10;90.20
60909;DHT22;46780;48.128;-1.704;2022-09-09T08:14:11;18.20;89.00
60909;DHT22;46780;48.128;-1.704;2022-09-09T08:16:39;18.30;87.70
60909;DHT22;46780;48.128;-1.704;2022-09-09T08:19:06;18.30;87.30
60909;DHT22;46780;48.128;-1.704;2022-09-09T08:21:35;18.30;87.00
60909;DHT22;46780;48.128;-1.704;2022-09-09T08:24:02;18.20;86.80
60909;DHT22;46780;48.128;-1.704;2022-09-09T08:26:30;18.20;86.80
60909;DHT22;46780;48.128;-1.704;2022-09-09T08:28:58;18.20;87.40
60909;DHT22;46780;48.128;-1.704;2022-09-09T08:31:28;18.20;87.10
60909;DHT22;46780;48.128;-1.704;2022-09-09T08:33:56;18.20;87.10
60909;DHT22;46780;48.128;-1.704;2022-09-09T08:36:24;18.10;87.10
60909;DHT22;46780;48.128;-1.704;2022-09-09T08:38:53;18.20;87.40
60909;DHT22;46780;48.128;-1.704;2022-09-09T08:41:48;18.20;87.20
60909;DHT22;46780;48.128;-1.704;2022-09-09T08:44:26;18.20;87.10
60909;DHT22;46780;48.128;-1.704;2022-09-09T08:47:04;18.20;86.90
60909;DHT22;46780;48.128;-1.704;2022-09-09T08:49:56;18.20;87.10
60909;DHT22;46780;48.128;-1.704;2022-09-09T08:52:28;18.20;86.90
60909;DHT22;46780;48.128;-1.704;2022-09-09T08:54:55;18.20;87.00
60909;DHT22;46780;48.128;-1.704;2022-09-09T08:57:26;18.30;87.00
60909;DHT22;46780;48.128;-1.704;2022-09-09T08:59:54;18.40;86.80
60909;DHT22;46780;48.128;-1.704;2022-09-09T09:02:25;18.50;86.30
60909;DHT22;46780;48.128;-1.704;2022-09-09T09:05:00;18.80;86.60
60909;DHT22;46780;48.128;-1.704;2022-09-09T09:07:45;19.00;85.80
60909;DHT22;46780;48.128;-1.704;2022-09-09T09:10:20;19.20;84.60
60909;DHT22;46780;48.128;-1.704;2022-09-09T09:12:53;19.30;84.00
60909;DHT22;46780;48.128;-1.704;2022-09-09T09:15:23;19.40;83.80
60909;DHT22;46780;48.128;-1.704;2022-09-09T09:17:51;19.50;83.10
60909;DHT22;46780;48.128;-1.704;2022-09-09T09:20:23;19.60;83.30
60909;DHT22;46780;48.128;-1.704;2022-09-09T09:22:55;19.60;81.20
60909;DHT22;46780;48.128;-1.704;2022-09-09T09:25:27;19.60;81.20
60909;DHT22;46780;48.128;-1.704;2022-09-09T09:27:59;19.60;81.00
60909;DHT22;46780;48.128;-1.704;2022-09-09T09:30:28;19.60;81.30
60909;DHT22;46780;48.128;-1.704;2022-09-09T09:33:00;19.50;80.30
60909;DHT22;46780;48.128;-1.704;2022-09-09T09:35:27;19.40;80.20
60909;DHT22;46780;48.128;-1.704;2022-09-09T09:37:54;19.40;80.80
60909;DHT22;46780;48.128;-1.704;2022-09-09T09:40:22;19.50;81.50
60909;DHT22;46780;48.128;-1.704;2022-09-09T09:42:53;19.70;81.40
60909;DHT22;46780;48.128;-1.704;2022-09-09T09:45:28;20.10;81.10
60909;DHT22;46780;48.128;-1.704;2022-09-09T09:48:01;20.40;78.10
60909;DHT22;46780;48.128;-1.704;2022-09-09T09:50:28;20.50;76.60
60909;DHT22;46780;48.128;-1.704;2022-09-09T09:52:56;20.50;75.60
60909;DHT22;46780;48.128;-1.704;2022-09-09T09:55:23;20.60;75.10
60909;DHT22;46780;48.128;-1.704;2022-09-09T09:57:51;20.60;74.70
60909;DHT22;46780;48.128;-1.704;2022-09-09T10:00:19;20.70;73.90
60909;DHT22;46780;48.128;-1.704;2022-09-09T10:02:47;20.70;74.00
60909;DHT22;46780;48.128;-1.704;2022-09-09T10:05:17;20.70;73.90
60909;DHT22;46780;48.128;-1.704;2022-09-09T10:07:44;20.90;74.30
60909;DHT22;46780;48.128;-1.704;2022-09-09T10:10:15;21.30;75.30
60909;DHT22;46780;48.128;-1.704;2022-09-09T10:12:55;22.00;73.90
60909;DHT22;46780;48.128;-1.704;2022-09-09T10:15:32;22.40;69.20
60909;DHT22;46780;48.128;-1.704;2022-09-09T10:18:13;22.50;67.60
60909;DHT22;46780;48.128;-1.704;2022-09-09T10:20:49;22.50;67.30
60909;DHT22;46780;48.128;-1.704;2022-09-09T10:23:29;22.70;67.10
60909;DHT22;46780;48.128;-1.704;2022-09-09T10:26:16;23.00;66.70
60909;DHT22;46780;48.128;-1.704;2022-09-09T10:29:05;23.20;65.20
60909;DHT22;46780;48.128;-1.704;2022-09-09T10:31:40;23.00;64.10
60909;DHT22;46780;48.128;-1.704;2022-09-09T10:34:23;22.80;64.70
60909;DHT22;46780;48.128;-1.704;2022-09-09T10:36:55;22.50;64.70
60909;DHT22;46780;48.128;-1.704;2022-09-09T10:39:32;22.20;65.90
60909;DHT22;46780;48.128;-1.704;2022-09-09T10:42:05;21.90;66.80
60909;DHT22;46780;48.128;-1.704;2022-09-09T10:44:42;21.60;68.20
60909;DHT22;46780;48.128;-1.704;2022-09-09T10:47:35;21.40;69.50
60909;DHT22;46780;48.128;-1.704;2022-09-09T10:50:18;21.20;71.00
60909;DHT22;46780;48.128;-1.704;2022-09-09T10:52:54;20.90;73.10
60909;DHT22;46780;48.128;-1.704;2022-09-09T10:55:25;20.80;74.10
60909;DHT22;46780;48.128;-1.704;2022-09-09T10:57:54;20.70;74.00
60909;DHT22;46780;48.128;-1.704;2022-09-09T11:00:24;20.60;74.10
60909;DHT22;46780;48.128;-1.704;2022-09-09T11:02:55;20.60;74.30
60909;DHT22;46780;48.128;-1.704;2022-09-09T11:05:27;20.60;74.90
60909;DHT22;46780;48.128;-1.704;2022-09-09T11:07:58;20.70;74.90
60909;DHT22;46780;48.128;-1.704;2022-09-09T11:10:29;20.90;74.90
60909;DHT22;46780;48.128;-1.704;2022-09-09T11:13:04;21.30;72.90
60909;DHT22;46780;48.128;-1.704;2022-09-09T11:15:38;21.50;71.70
60909;DHT22;46780;48.128;-1.704;2022-09-09T11:18:08;21.70;70.90
60909;DHT22;46780;48.128;-1.704;2022-09-09T11:20:37;21.90;69.00
60909;DHT22;46780;48.128;-1.704;2022-09-09T11:23:10;21.80;68.90
60909;DHT22;46780;48.128;-1.704;2022-09-09T11:25:41;21.70;69.20
60909;DHT22;46780;48.128;-1.704;2022-09-09T11:28:24;21.60;69.30
60909;DHT22;46780;48.128;-1.704;2022-09-09T11:31:04;21.60;69.50
60909;DHT22;46780;48.128;-1.704;2022-09-09T11:33:58;21.50;69.90
60909;DHT22;46780;48.128;-1.704;2022-09-09T11:36:48;21.50;69.70
60909;DHT22;46780;48.128;-1.704;2022-09-09T11:42:20;21.20;69.40
60909;DHT22;46780;48.128;-1.704;2022-09-09T11:44:47;21.10;68.90
60909;DHT22;46780;48.128;-1.704;2022-09-09T11:47:23;21.00;69.10
60909;DHT22;46780;48.128;-1.704;2022-09-09T11:49:50;20.90;69.30
60909;DHT22;46780;48.128;-1.704;2022-09-09T11:52:22;20.80;69.60
60909;DHT22;46780;48.128;-1.704;2022-09-09T11:54:51;20.80;70.10
60909;DHT22;46780;48.128;-1.704;2022-09-09T11:57:25;20.80;71.20
60909;DHT22;46780;48.128;-1.704;2022-09-09T11:59:52;21.30;70.90
60909;DHT22;46780;48.128;-1.704;2022-09-09T12:02:22;21.70;68.30
60909;DHT22;46780;48.128;-1.704;2022-09-09T12:04:55;22.30;65.70
60909;DHT22;46780;48.128;-1.704;2022-09-09T12:07:34;22.50;63.10
60909;DHT22;46780;48.128;-1.704;2022-09-09T12:10:05;22.40;62.00
60909;DHT22;46780;48.128;-1.704;2022-09-09T12:12:45;22.20;63.40
60909;DHT22;46780;48.128;-1.704;2022-09-09T12:15:21;22.10;64.30
60909;DHT22;46780;48.128;-1.704;2022-09-09T12:17:49;22.50;65.20
60909;DHT22;46780;48.128;-1.704;2022-09-09T12:20:18;23.10;62.90
60909;DHT22;46780;48.128;-1.704;2022-09-09T12:22:57;23.70;61.70
60909;DHT22;46780;48.128;-1.704;2022-09-09T12:25:33;24.20;59.70
60909;DHT22;46780;48.128;-1.704;2022-09-09T12:28:06;24.60;58.00
60909;DHT22;46780;48.128;-1.704;2022-09-09T12:30:43;25.00;58.00
60909;DHT22;46780;48.128;-1.704;2022-09-09T12:33:17;25.50;56.60
60909;DHT22;46780;48.128;-1.704;2022-09-09T12:35:43;25.80;54.20
60909;DHT22;46780;48.128;-1.704;2022-09-09T12:38:13;26.00;53.30
60909;DHT22;46780;48.128;-1.704;2022-09-09T12:40:42;25.90;52.30
60909;DHT22;46780;48.128;-1.704;2022-09-09T12:43:21;25.90;52.60
60909;DHT22;46780;48.128;-1.704;2022-09-09T12:45:48;26.10;52.90
60909;DHT22;46780;48.128;-1.704;2022-09-09T12:48:18;26.40;51.80
60909;DHT22;46780;48.128;-1.704;2022-09-09T12:50:48;26.40;51.30
60909;DHT22;46780;48.128;-1.704;2022-09-09T12:53:26;26.20;51.20
60909;DHT22;46780;48.128;-1.704;2022-09-09T12:55:57;26.10;51.10
60909;DHT22;46780;48.128;-1.704;2022-09-09T12:58:24;26.20;49.60
60909;DHT22;46780;48.128;-1.704;2022-09-09T13:00:52;26.30;49.60
60909;DHT22;46780;48.128;-1.704;2022-09-09T13:03:20;26.20;50.40
60909;DHT22;46780;48.128;-1.704;2022-09-09T13:05:47;26.00;50.50
60909;DHT22;46780;48.128;-1.704;2022-09-09T13:08:15;25.60;50.10
60909;DHT22;46780;48.128;-1.704;2022-09-09T13:10:46;25.30;50.60
60909;DHT22;46780;48.128;-1.704;2022-09-09T13:13:16;25.10;50.90
60909;DHT22;46780;48.128;-1.704;2022-09-09T13:15:50;24.80;52.10
60909;DHT22;46780;48.128;-1.704;2022-09-09T13:18:20;24.70;52.50
60909;DHT22;46780;48.128;-1.704;2022-09-09T13:20:48;24.50;52.00
60909;DHT22;46780;48.128;-1.704;2022-09-09T13:23:15;24.30;52.60
60909;DHT22;46780;48.128;-1.704;2022-09-09T13:25:53;24.00;52.80
60909;DHT22;46780;48.128;-1.704;2022-09-09T13:28:23;23.60;53.90
60909;DHT22;46780;48.128;-1.704;2022-09-09T13:30:57;23.20;56.00
60909;DHT22;46780;48.128;-1.704;2022-09-09T13:33:23;23.00;59.20
60909;DHT22;46780;48.128;-1.704;2022-09-09T13:35:56;22.80;61.40
60909;DHT22;46780;48.128;-1.704;2022-09-09T13:38:23;22.50;64.80
60909;DHT22;46780;48.128;-1.704;2022-09-09T13:40:55;22.30;67.20
60909;DHT22;46780;48.128;-1.704;2022-09-09T13:43:25;22.10;69.30
60909;DHT22;46780;48.128;-1.704;2022-09-09T13:45:56;22.00;71.40
60909;DHT22;46780;48.128;-1.704;2022-09-09T13:48:24;21.80;72.60
60909;DHT22;46780;48.128;-1.704;2022-09-09T13:50:58;21.60;73.90
60909;DHT22;46780;48.128;-1.704;2022-09-09T13:53:25;21.40;74.90
60909;DHT22;46780;48.128;-1.704;2022-09-09T13:55:52;21.20;76.40
60909;DHT22;46780;48.128;-1.704;2022-09-09T13:58:19;21.00;77.50
60909;DHT22;46780;48.128;-1.704;2022-09-09T14:00:48;20.90;78.40
60909;DHT22;46780;48.128;-1.704;2022-09-09T14:03:14;20.80;79.30
60909;DHT22;46780;48.128;-1.704;2022-09-09T14:05:40;20.70;79.90
60909;DHT22;46780;48.128;-1.704;2022-09-09T14:08:07;20.60;80.50
60909;DHT22;46780;48.128;-1.704;2022-09-09T14:10:37;20.60;80.90
60909;DHT22;46780;48.128;-1.704;2022-09-09T14:13:03;20.60;81.10
60909;DHT22;46780;48.128;-1.704;2022-09-09T14:15:30;20.60;81.60
60909;DHT22;46780;48.128;-1.704;2022-09-09T14:17:57;20.60;81.50
60909;DHT22;46780;48.128;-1.704;2022-09-09T14:20:24;20.70;81.80
60909;DHT22;46780;48.128;-1.704;2022-09-09T14:22:50;20.80;81.50
60909;DHT22;46780;48.128;-1.704;2022-09-09T14:25:17;20.90;81.70
60909;DHT22;46780;48.128;-1.704;2022-09-09T14:27:43;20.90;80.70
60909;DHT22;46780;48.128;-1.704;2022-09-09T14:30:11;21.10;79.90
60909;DHT22;46780;48.128;-1.704;2022-09-09T14:32:37;21.10;79.30
60909;DHT22;46780;48.128;-1.704;2022-09-09T14:35:06;21.20;79.10
60909;DHT22;46780;48.128;-1.704;2022-09-09T14:37:32;21.10;78.70
60909;DHT22;46780;48.128;-1.704;2022-09-09T14:39:59;21.20;78.20
60909;DHT22;46780;48.128;-1.704;2022-09-09T14:42:25;21.10;77.20
60909;DHT22;46780;48.128;-1.704;2022-09-09T14:44:52;20.90;75.90
60909;DHT22;46780;48.128;-1.704;2022-09-09T14:47:18;20.70;75.40
60909;DHT22;46780;48.128;-1.704;2022-09-09T14:49:45;20.40;74.90
60909;DHT22;46780;48.128;-1.704;2022-09-09T14:52:13;20.20;75.30
60909;DHT22;46780;48.128;-1.704;2022-09-09T14:54:39;20.00;75.80
60909;DHT22;46780;48.128;-1.704;2022-09-09T14:57:05;19.90;77.40
60909;DHT22;46780;48.128;-1.704;2022-09-09T14:59:32;19.80;77.50
60909;DHT22;46780;48.128;-1.704;2022-09-09T15:01:58;19.80;77.70
60909;DHT22;46780;48.128;-1.704;2022-09-09T15:04:25;19.80;78.20
60909;DHT22;46780;48.128;-1.704;2022-09-09T15:06:51;19.80;78.30
60909;DHT22;46780;48.128;-1.704;2022-09-09T15:09:19;19.90;78.50
60909;DHT22;46780;48.128;-1.704;2022-09-09T15:11:45;20.00;78.60
60909;DHT22;46780;48.128;-1.704;2022-09-09T15:14:12;20.10;78.60
60909;DHT22;46780;48.128;-1.704;2022-09-09T15:16:39;20.10;77.70
60909;DHT22;46780;48.128;-1.704;2022-09-09T15:19:06;20.20;77.40
60909;DHT22;46780;48.128;-1.704;2022-09-09T15:21:34;20.40;77.20
60909;DHT22;46780;48.128;-1.704;2022-09-09T15:24:01;20.40;76.60
60909;DHT22;46780;48.128;-1.704;2022-09-09T15:26:29;20.50;76.50
60909;DHT22;46780;48.128;-1.704;2022-09-09T15:28:56;20.60;76.30
60909;DHT22;46780;48.128;-1.704;2022-09-09T15:31:24;20.60;76.10
60909;DHT22;46780;48.128;-1.704;2022-09-09T15:33:52;20.60;75.40
60909;DHT22;46780;48.128;-1.704;2022-09-09T15:36:21;20.70;75.70
60909;DHT22;46780;48.128;-1.704;2022-09-09T15:38:48;20.70;75.80
60909;DHT22;46780;48.128;-1.704;2022-09-09T15:41:15;20.80;75.80